sensor_id;sensor_type;location;lat;lon;timestamp;pressure;altitude;pressure_sealevel;temperature;humidity
77590;BME280;66746;51.328;12.332;2023-08-07T00:02:10;99288.94;;;14.34;100.00
77590;BME280;66746;51.328;12.332;2023-08-07T00:04:37;99292.44;;;14.36;100.00
77590;BME280;66746;51.328;12.332;2023-08-07T00:07:05;99294.50;;;14.33;100.00
77590;BME280;66746;51.328;12.332;2023-08-07T00:09:32;99280.22;;;14.29;100.00
77590;BME280;66746;51.328;12.332;2023-08-07T00:11:59;99305.31;;;14.34;100.00
77590;BME280;66746;51.328;12.332;2023-08-07T00:14:26;99299.31;;;14.29;100.00
77590;BME280;66746;51.328;12.332;2023-08-07T00:16:53;99299.47;;;14.26;100.00
77590;BME280;66746;51.328;12.332;2023-08-07T00:19:19;99303.78;;;14.30;100.00
77590;BME280;66746;51.328;12.332;2023-08-07T00:21:46;99300.16;;;14.30;100.00
77590;BME280;66746;51.328;12.332;2023-08-07T00:24:14;99298.59;;;14.26;100.00
77590;BME280;66746;51.328;12.332;2023-08-07T00:26:41;99308.25;;;14.31;100.00
77590;BME280;66746;51.328;12.332;2023-08-07T00:29:08;99303.56;;;14.33;100.00
77590;BME280;66746;51.328;12.332;2023-08-07T00:31:34;99288.03;;;14.21;100.00
77590;BME280;66746;51.328;12.332;2023-08-07T00:34:01;99303.00;;;14.28;100.00
77590;BME280;66746;51.328;12.332;2023-08-07T00:36:28;99302.81;;;14.31;100.00
77590;BME280;66746;51.328;12.332;2023-08-07T00:38:55;99285.84;;;14.26;100.00
77590;BME280;66746;51.328;12.332;2023-08-07T00:41:25;99288.28;;;14.31;100.00
77590;BME280;66746;51.328;12.332;2023-08-07T00:43:52;99293.50;;;14.34;100.00
77590;BME280;66746;51.328;12.332;2023-08-07T00:46:20;99297.00;;;14.36;100.00
77590;BME280;66746;51.328;12.332;2023-08-07T00:48:48;99291.91;;;14.31;100.00
77590;BME280;66746;51.328;12.332;2023-08-07T00:51:17;99293.06;;;14.27;100.00
77590;BME280;66746;51.328;12.332;2023-08-07T00:53:45;99305.31;;;14.34;100.00
77590;BME280;66746;51.328;12.332;2023-08-07T00:56:14;99297.91;;;14.36;100.00
77590;BME280;66746;51.328;12.332;2023-08-07T00:58:43;99308.81;;;14.36;100.00
77590;BME280;66746;51.328;12.332;2023-08-07T01:01:17;99301.25;;;14.27;100.00
77590;BME280;66746;51.328;12.332;2023-08-07T01:03:45;99301.81;;;14.32;100.00
77590;BME280;66746;51.328;12.332;2023-08-07T01:06:12;99304.16;;;14.24;100.00
77590;BME280;66746;51.328;12.332;2023-08-07T01:08:39;99294.88;;;14.14;100.00
77590;BME280;66746;51.328;12.332;2023-08-07T01:11:21;99307.13;;;14.21;100.00
77590;BME280;66746;51.328;12.332;2023-08-07T01:13:59;99305.47;;;14.18;100.00
77590;BME280;66746;51.328;12.332;2023-08-07T01:16:34;99315.28;;;14.21;100.00
77590;BME280;66746;51.328;12.332;2023-08-07T01:19:05;99310.25;;;14.15;100.00
77590;BME280;66746;51.328;12.332;2023-08-07T01:21:35;99311.16;;;14.15;100.00
77590;BME280;66746;51.328;12.332;2023-08-07T01:24:05;99309.59;;;14.11;100.00
77590;BME280;66746;51.328;12.332;2023-08-07T01:26:33;99314.19;;;14.11;100.00
77590;BME280;66746;51.328;12.332;2023-08-07T01:29:06;99313.75;;;14.17;100.00
77590;BME280;66746;51.328;12.332;2023-08-07T01:31:39;99310.88;;;14.06;100.00
77590;BME280;66746;51.328;12.332;2023-08-07T01:34:10;99304.56;;;14.05;100.00
77590;BME280;66746;51.328;12.332;2023-08-07T01:36:40;99324.09;;;14.12;100.00
77590;BME280;66746;51.328;12.332;2023-08-07T01:39:11;99316.31;;;14.06;100.00
77590;BME280;66746;51.328;12.332;2023-08-07T01:41:41;99323.53;;;14.07;100.00
77590;BME280;66746;51.328;12.332;2023-08-07T01:44:08;99311.28;;;14.00;100.00
77590;BME280;66746;51.328;12.332;2023-08-07T01:46:35;99317.44;;;14.16;100.00
77590;BME280;66746;51.328;12.332;2023-08-07T01:49:02;99308.72;;;14.11;100.00
77590;BME280;66746;51.328;12.332;2023-08-07T01:54:10;99307.72;;;13.99;100.00
77590;BME280;66746;51.328;12.332;2023-08-07T01:56:37;99325.50;;;14.05;100.00
77590;BME280;66746;51.328;12.332;2023-08-07T01:59:03;99323.72;;;14.04;100.00
77590;BME280;66746;51.328;12.332;2023-08-07T02:01:30;99319.47;;;14.00;100.00
77590;BME280;66746;51.328;12.332;2023-08-07T02:03:57;99329.00;;;14.07;100.00
77590;BME280;66746;51.328;12.332;2023-08-07T02:06:25;99330.94;;;14.05;100.00
77590;BME280;66746;51.328;12.332;2023-08-07T02:08:51;99334.97;;;13.99;100.00
77590;BME280;66746;51.328;12.332;2023-08-07T02:11:19;99337.28;;;14.05;100.00
77590;BME280;66746;51.328;12.332;2023-08-07T02:13:46;99325.91;;;13.99;100.00
77590;BME280;66746;51.328;12.332;2023-08-07T02:16:13;99324.59;;;13.92;100.00
77590;BME280;66746;51.328;12.332;2023-08-07T02:18:39;99324.91;;;14.00;100.00
77590;BME280;66746;51.328;12.332;2023-08-07T02:21:06;99335.06;;;13.98;100.00
77590;BME280;66746;51.328;12.332;2023-08-07T02:23:34;99333.44;;;13.95;100.00
77590;BME280;66746;51.328;12.332;2023-08-07T02:26:01;99332.00;;;13.90;100.00
77590;BME280;66746;51.328;12.332;2023-08-07T02:28:29;99328.69;;;13.85;100.00
77590;BME280;66746;51.328;12.332;2023-08-07T02:30:55;99333.78;;;13.77;100.00
77590;BME280;66746;51.328;12.332;2023-08-07T02:33:22;99327.56;;;13.75;100.00
77590;BME280;66746;51.328;12.332;2023-08-07T02:35:49;99339.63;;;13.71;100.00
77590;BME280;66746;51.328;12.332;2023-08-07T02:38:16;99335.66;;;13.76;100.00
77590;BME280;66746;51.328;12.332;2023-08-07T02:40:42;99354.41;;;13.81;100.00
77590;BME280;66746;51.328;12.332;2023-08-07T02:43:09;99354.41;;;13.81;100.00
77590;BME280;66746;51.328;12.332;2023-08-07T02:45:37;99358.13;;;13.80;100.00
77590;BME280;66746;51.328;12.332;2023-08-07T02:48:04;99356.34;;;13.79;100.00
77590;BME280;66746;51.328;12.332;2023-08-07T02:50:31;99344.09;;;13.86;100.00
77590;BME280;66746;51.328;12.332;2023-08-07T02:53:00;99346.06;;;13.70;100.00
77590;BME280;66746;51.328;12.332;2023-08-07T02:55:26;99353.63;;;13.79;100.00
77590;BME280;66746;51.328;12.332;2023-08-07T02:57:53;99344.38;;;13.81;100.00
77590;BME280;66746;51.328;12.332;2023-08-07T03:00:20;99357.72;;;13.86;100.00
77590;BME280;66746;51.328;12.332;2023-08-07T03:02:51;99356.59;;;13.88;100.00
77590;BME280;66746;51.328;12.332;2023-08-07T03:05:17;99372.19;;;13.86;100.00
77590;BME280;66746;51.328;12.332;2023-08-07T03:07:44;99366.97;;;13.83;100.00
77590;BME280;66746;51.328;12.332;2023-08-07T03:10:11;99362.56;;;13.81;100.00
77590;BME280;66746;51.328;12.332;2023-08-07T03:12:38;99369.00;;;13.80;100.00
77590;BME280;66746;51.328;12.332;2023-08-07T03:15:06;99344.13;;;13.72;100.00
77590;BME280;66746;51.328;12.332;2023-08-07T03:17:33;99365.69;;;13.75;100.00
77590;BME280;66746;51.328;12.332;2023-08-07T03:20:01;99377.31;;;13.78;100.00
77590;BME280;66746;51.328;12.332;2023-08-07T03:22:27;99375.59;;;13.90;100.00
77590;BME280;66746;51.328;12.332;2023-08-07T03:24:54;99368.78;;;13.83;100.00
77590;BME280;66746;51.328;12.332;2023-08-07T03:27:21;99364.53;;;13.79;100.00
77590;BME280;66746;51.328;12.332;2023-08-07T03:29:48;99384.75;;;13.89;100.00
77590;BME280;66746;51.328;12.332;2023-08-07T03:32:18;99379.88;;;13.94;100.00
77590;BME280;66746;51.328;12.332;2023-08-07T03:34:44;99383.41;;;13.82;100.00
77590;BME280;66746;51.328;12.332;2023-08-07T03:37:13;99395.78;;;14.00;100.00
77590;BME280;66746;51.328;12.332;2023-08-07T03:39:40;99393.50;;;13.94;100.00
77590;BME280;66746;51.328;12.332;2023-08-07T03:42:07;99396.00;;;13.97;100.00
77590;BME280;66746;51.328;12.332;2023-08-07T03:44:33;99388.06;;;13.94;100.00
77590;BME280;66746;51.328;12.332;2023-08-07T03:47:00;99404.84;;;14.00;100.00
77590;BME280;66746;51.328;12.332;2023-08-07T03:49:26;99411.28;;;13.99;100.00
77590;BME280;66746;51.328;12.332;2023-08-07T03:51:53;99413.38;;;13.96;100.00
77590;BME280;66746;51.328;12.332;2023-08-07T03:54:21;99414.31;;;13.95;100.00
77590;BME280;66746;51.328;12.332;2023-08-07T03:56:48;99411.59;;;13.95;100.00
77590;BME280;66746;51.328;12.332;2023-08-07T03:59:15;99404.81;;;13.88;100.00
77590;BME280;66746;51.328;12.332;2023-08-07T04:01:41;99414.16;;;13.84;100.00
77590;BME280;66746;51.328;12.332;2023-08-07T04:04:08;99405.41;;;13.79;100.00
77590;BME280;66746;51.328;12.332;2023-08-07T04:06:38;99405.22;;;13.82;100.00
77590;BME280;66746;51.328;12.332;2023-08-07T04:09:05;99408.72;;;13.84;100.00
77590;BME280;66746;51.328;12.332;2023-08-07T04:11:33;99407.34;;;13.77;100.00
77590;BME280;66746;51.328;12.332;2023-08-07T04:13:59;99409.88;;;13.80;100.00
77590;BME280;66746;51.328;12.332;2023-08-07T04:16:26;99409.69;;;13.83;100.00
77590;BME280;66746;51.328;12.332;2023-08-07T04:18:53;99429.53;;;13.85;100.00
77590;BME280;66746;51.328;12.332;2023-08-07T04:21:19;99414.34;;;13.81;100.00
77590;BME280;66746;51.328;12.332;2023-08-07T04:23:48;99427.19;;;13.93;100.00
77590;BME280;66746;51.328;12.332;2023-08-07T04:26:14;99423.97;;;13.86;100.00
77590;BME280;66746;51.328;12.332;2023-08-07T04:28:42;99439.66;;;13.83;100.00
77590;BME280;66746;51.328;12.332;2023-08-07T04:31:09;99437.69;;;13.85;100.00
77590;BME280;66746;51.328;12.332;2023-08-07T04:33:35;99431.88;;;13.77;100.00
77590;BME280;66746;51.328;12.332;2023-08-07T04:36:03;99433.81;;;13.75;100.00
77590;BME280;66746;51.328;12.332;2023-08-07T04:38:29;99424.19;;;13.83;100.00
77590;BME280;66746;51.328;12.332;2023-08-07T04:40:56;99443.16;;;13.85;100.00
77590;BME280;66746;51.328;12.332;2023-08-07T04:43:24;99454.94;;;13.85;100.00
77590;BME280;66746;51.328;12.332;2023-08-07T04:45:53;99453.16;;;13.84;100.00
77590;BME280;66746;51.328;12.332;2023-08-07T04:48:19;99460.50;;;13.84;100.00
77590;BME280;66746;51.328;12.332;2023-08-07T04:50:46;99463.22;;;13.84;100.00
77590;BME280;66746;51.328;12.332;2023-08-07T04:53:12;99464.78;;;13.88;100.00
77590;BME280;66746;51.328;12.332;2023-08-07T04:55:39;99457.66;;;13.85;100.00
77590;BME280;66746;51.328;12.332;2023-08-07T04:58:06;99463.13;;;13.85;100.00
77590;BME280;66746;51.328;12.332;2023-08-07T05:00:32;99453.88;;;13.88;100.00
77590;BME280;66746;51.328;12.332;2023-08-07T05:03:00;99457.56;;;13.87;100.00
77590;BME280;66746;51.328;12.332;2023-08-07T05:05:27;99469.72;;;13.81;100.00
77590;BME280;66746;51.328;12.332;2023-08-07T05:07:54;99468.47;;;13.87;100.00
77590;BME280;66746;51.328;12.332;2023-08-07T05:10:21;99467.69;;;13.85;100.00
77590;BME280;66746;51.328;12.332;2023-08-07T05:12:47;99481.31;;;13.85;100.00
77590;BME280;66746;51.328;12.332;2023-08-07T05:15:14;99481.19;;;13.86;100.00
77590;BME280;66746;51.328;12.332;2023-08-07T05:17:41;99481.50;;;13.96;100.00
77590;BME280;66746;51.328;12.332;2023-08-07T05:20:10;99470.00;;;13.91;100.00
77590;BME280;66746;51.328;12.332;2023-08-07T05:22:37;99472.13;;;14.00;100.00
77590;BME280;66746;51.328;12.332;2023-08-07T05:25:04;99483.22;;;14.11;100.00
77590;BME280;66746;51.328;12.332;2023-08-07T05:27:32;99471.34;;;13.98;100.00
77590;BME280;66746;51.328;12.332;2023-08-07T05:29:59;99491.03;;;14.03;100.00
77590;BME280;66746;51.328;12.332;2023-08-07T05:32:26;99481.50;;;13.96;100.00
77590;BME280;66746;51.328;12.332;2023-08-07T05:34:52;99461.06;;;13.89;100.00
77590;BME280;66746;51.328;12.332;2023-08-07T05:37:20;99482.75;;;13.90;100.00
77590;BME280;66746;51.328;12.332;2023-08-07T05:39:47;99484.31;;;13.94;100.00
77590;BME280;66746;51.328;12.332;2023-08-07T05:42:13;99490.72;;;14.07;100.00
77590;BME280;66746;51.328;12.332;2023-08-07T05:44:40;99480.50;;;13.97;100.00
77590;BME280;66746;51.328;12.332;2023-08-07T05:47:07;99489.25;;;14.02;100.00
77590;BME280;66746;51.328;12.332;2023-08-07T05:49:34;99507.56;;;14.00;100.00
77590;BME280;66746;51.328;12.332;2023-08-07T05:52:00;99491.03;;;14.03;100.00
77590;BME280;66746;51.328;12.332;2023-08-07T05:54:31;99508.72;;;14.10;100.00
77590;BME280;66746;51.328;12.332;2023-08-07T05:56:58;99507.13;;;14.20;100.00
77590;BME280;66746;51.328;12.332;2023-08-07T05:59:26;99495.00;;;14.11;100.00
77590;BME280;66746;51.328;12.332;2023-08-07T06:01:53;99501.13;;;14.29;100.00
77590;BME280;66746;51.328;12.332;2023-08-07T06:04:23;99511.22;;;14.27;100.00
77590;BME280;66746;51.328;12.332;2023-08-07T06:06:55;99503.53;;;14.19;100.00
77590;BME280;66746;51.328;12.332;2023-08-07T06:09:22;99491.78;;;14.19;100.00
77590;BME280;66746;51.328;12.332;2023-08-07T06:11:50;99496.72;;;14.27;100.00
77590;BME280;66746;51.328;12.332;2023-08-07T06:14:17;99511.94;;;14.31;100.00
77590;BME280;66746;51.328;12.332;2023-08-07T06:16:43;99503.06;;;14.27;100.00
77590;BME280;66746;51.328;12.332;2023-08-07T06:19:10;99517.28;;;14.32;100.00
77590;BME280;66746;51.328;12.332;2023-08-07T06:21:56;99533.53;;;14.34;100.00
77590;BME280;66746;51.328;12.332;2023-08-07T06:24:23;99518.44;;;14.28;100.00
77590;BME280;66746;51.328;12.332;2023-08-07T06:26:51;99533.25;;;14.38;100.00
77590;BME280;66746;51.328;12.332;2023-08-07T06:29:18;99528.44;;;14.42;100.00
77590;BME280;66746;51.328;12.332;2023-08-07T06:31:44;99537.66;;;14.53;100.00
77590;BME280;66746;51.328;12.332;2023-08-07T06:34:11;99532.72;;;14.46;100.00
77590;BME280;66746;51.328;12.332;2023-08-07T06:36:38;99532.53;;;14.49;100.00
77590;BME280;66746;51.328;12.332;2023-08-07T06:39:04;99541.94;;;14.57;100.00
77590;BME280;66746;51.328;12.332;2023-08-07T06:41:31;99548.25;;;14.72;100.00
77590;BME280;66746;51.328;12.332;2023-08-07T06:43:59;99544.22;;;14.77;100.00
77590;BME280;66746;51.328;12.332;2023-08-07T06:46:26;99551.56;;;14.89;100.00
77590;BME280;66746;51.328;12.332;2023-08-07T06:48:52;99548.97;;;15.00;100.00
77590;BME280;66746;51.328;12.332;2023-08-07T06:51:19;99546.72;;;15.20;100.00
77590;BME280;66746;51.328;12.332;2023-08-07T06:53:45;99546.88;;;15.31;100.00
77590;BME280;66746;51.328;12.332;2023-08-07T06:56:12;99550.22;;;15.22;100.00
77590;BME280;66746;51.328;12.332;2023-08-07T06:58:39;99546.59;;;15.08;100.00
77590;BME280;66746;51.328;12.332;2023-08-07T07:01:07;99553.38;;;15.16;100.00
77590;BME280;66746;51.328;12.332;2023-08-07T07:03:37;99548.91;;;15.15;100.00
77590;BME280;66746;51.328;12.332;2023-08-07T07:10:11;99552.28;;;15.70;100.00
77590;BME280;66746;51.328;12.332;2023-08-07T07:16:19;99541.78;;;15.64;100.00
77590;BME280;66746;51.328;12.332;2023-08-07T07:17:00;99568.69;;;15.70;100.00
77590;BME280;66746;51.328;12.332;2023-08-07T07:20:35;99586.50;;;15.88;100.00
77590;BME280;66746;51.328;12.332;2023-08-07T07:24:06;99580.06;;;15.89;100.00
77590;BME280;66746;51.328;12.332;2023-08-07T07:31:20;99590.00;;;15.65;100.00
77590;BME280;66746;51.328;12.332;2023-08-07T07:35:07;99565.56;;;15.37;100.00
77590;BME280;66746;51.328;12.332;2023-08-07T07:42:35;99588.38;;;15.75;100.00
77590;BME280;66746;51.328;12.332;2023-08-07T07:45:23;99585.09;;;15.70;100.00
77590;BME280;66746;51.328;12.332;2023-08-07T07:49:17;99613.31;;;15.83;100.00
77590;BME280;66746;51.328;12.332;2023-08-07T07:51:31;99601.91;;;16.14;100.00
77590;BME280;66746;51.328;12.332;2023-08-07T07:53:57;99602.34;;;16.08;100.00
77590;BME280;66746;51.328;12.332;2023-08-07T07:56:40;99599.63;;;16.08;100.00
77590;BME280;66746;51.328;12.332;2023-08-07T07:59:06;99607.59;;;16.36;99.20
77590;BME280;66746;51.328;12.332;2023-08-07T08:01:35;99613.72;;;16.52;100.00
77590;BME280;66746;51.328;12.332;2023-08-07T08:04:01;99608.91;;;16.31;100.00
77590;BME280;66746;51.328;12.332;2023-08-07T08:06:28;99615.63;;;16.75;98.99
77590;BME280;66746;51.328;12.332;2023-08-07T08:08:56;99614.28;;;16.81;97.59
77590;BME280;66746;51.328;12.332;2023-08-07T08:11:22;99614.81;;;16.50;95.40
77590;BME280;66746;51.328;12.332;2023-08-07T08:13:49;99615.69;;;16.38;93.74
77590;BME280;66746;51.328;12.332;2023-08-07T08:16:17;99617.09;;;16.43;97.88
77590;BME280;66746;51.328;12.332;2023-08-07T08:18:44;99629.47;;;16.36;98.22
77590;BME280;66746;51.328;12.332;2023-08-07T08:21:11;99628.16;;;16.29;98.11
77590;BME280;66746;51.328;12.332;2023-08-07T08:23:37;99625.75;;;16.37;96.48
77590;BME280;66746;51.328;12.332;2023-08-07T08:26:05;99629.88;;;16.43;95.78
77590;BME280;66746;51.328;12.332;2023-08-07T08:28:32;99629.25;;;16.02;96.16
77590;BME280;66746;51.328;12.332;2023-08-07T08:30:58;99633.00;;;15.75;96.96
77590;BME280;66746;51.328;12.332;2023-08-07T08:33:25;99620.22;;;16.01;97.22
77590;BME280;66746;51.328;12.332;2023-08-07T08:35:52;99634.88;;;16.50;95.62
77590;BME280;66746;51.328;12.332;2023-08-07T08:38:18;99636.22;;;16.68;93.74
77590;BME280;66746;51.328;12.332;2023-08-07T08:40:50;99635.59;;;16.40;93.99
77590;BME280;66746;51.328;12.332;2023-08-07T08:43:19;99637.13;;;16.56;97.44
77590;BME280;66746;51.328;12.332;2023-08-07T08:45:46;99641.69;;;16.68;95.64
77590;BME280;66746;51.328;12.332;2023-08-07T08:48:19;99642.09;;;16.88;93.28
77590;BME280;66746;51.328;12.332;2023-08-07T08:50:46;99645.44;;;16.67;90.26
77590;BME280;66746;51.328;12.332;2023-08-07T08:53:14;99638.25;;;16.54;93.95
77590;BME280;66746;51.328;12.332;2023-08-07T08:55:41;99645.44;;;16.55;92.11
77590;BME280;66746;51.328;12.332;2023-08-07T08:58:08;99652.47;;;16.46;93.78
77590;BME280;66746;51.328;12.332;2023-08-07T09:00:36;99655.75;;;16.51;94.07
77590;BME280;66746;51.328;12.332;2023-08-07T09:03:03;99662.31;;;16.61;94.90
77590;BME280;66746;51.328;12.332;2023-08-07T09:05:31;99665.19;;;16.35;92.58
77590;BME280;66746;51.328;12.332;2023-08-07T09:07:58;99658.84;;;16.09;93.82
77590;BME280;66746;51.328;12.332;2023-08-07T09:10:27;99660.22;;;16.27;93.75
77590;BME280;66746;51.328;12.332;2023-08-07T09:12:57;99671.75;;;16.32;93.81
77590;BME280;66746;51.328;12.332;2023-08-07T09:15:29;99672.41;;;16.48;92.32
77590;BME280;66746;51.328;12.332;2023-08-07T09:17:57;99669.75;;;16.59;91.32
77590;BME280;66746;51.328;12.332;2023-08-07T09:20:24;99658.53;;;16.88;93.24
77590;BME280;66746;51.328;12.332;2023-08-07T09:22:51;99659.56;;;16.98;91.40
77590;BME280;66746;51.328;12.332;2023-08-07T09:25:27;99670.91;;;16.93;91.64
77590;BME280;66746;51.328;12.332;2023-08-07T09:27:55;99660.78;;;17.30;89.33
77590;BME280;66746;51.328;12.332;2023-08-07T09:30:26;99654.53;;;17.75;86.98
77590;BME280;66746;51.328;12.332;2023-08-07T09:32:53;99676.03;;;17.45;88.68
77590;BME280;66746;51.328;12.332;2023-08-07T09:35:21;99677.88;;;17.57;86.49
77590;BME280;66746;51.328;12.332;2023-08-07T09:37:48;99677.50;;;17.85;86.28
77590;BME280;66746;51.328;12.332;2023-08-07T09:40:15;99678.56;;;17.48;87.27
77590;BME280;66746;51.328;12.332;2023-08-07T09:42:42;99682.28;;;17.47;86.14
77590;BME280;66746;51.328;12.332;2023-08-07T09:45:21;99680.59;;;17.33;86.35
77590;BME280;66746;51.328;12.332;2023-08-07T09:47:57;99665.53;;;17.39;88.99
77590;BME280;66746;51.328;12.332;2023-08-07T09:50:26;99670.78;;;17.89;86.75
77590;BME280;66746;51.328;12.332;2023-08-07T09:52:53;99669.34;;;17.73;83.43
77590;BME280;66746;51.328;12.332;2023-08-07T09:55:19;99671.31;;;17.47;83.90
77590;BME280;66746;51.328;12.332;2023-08-07T09:57:46;99689.34;;;17.15;83.72
77590;BME280;66746;51.328;12.332;2023-08-07T10:00:15;99677.06;;;17.08;85.21
77590;BME280;66746;51.328;12.332;2023-08-07T10:02:42;99677.69;;;17.24;86.23
77590;BME280;66746;51.328;12.332;2023-08-07T10:05:09;99679.13;;;16.80;85.37
77590;BME280;66746;51.328;12.332;2023-08-07T10:07:38;99683.22;;;16.62;88.29
77590;BME280;66746;51.328;12.332;2023-08-07T10:10:06;99684.75;;;16.66;90.35
77590;BME280;66746;51.328;12.332;2023-08-07T10:12:33;99686.19;;;16.72;93.66
77590;BME280;66746;51.328;12.332;2023-08-07T10:15:00;99695.50;;;16.44;92.81
77590;BME280;66746;51.328;12.332;2023-08-07T10:17:27;99699.97;;;16.45;94.76
77590;BME280;66746;51.328;12.332;2023-08-07T10:19:54;99687.94;;;16.60;97.74
77590;BME280;66746;51.328;12.332;2023-08-07T10:22:22;99699.75;;;16.73;98.11
77590;BME280;66746;51.328;12.332;2023-08-07T10:24:53;99703.50;;;16.60;97.95
77590;BME280;66746;51.328;12.332;2023-08-07T10:27:21;99707.59;;;16.78;97.50
77590;BME280;66746;51.328;12.332;2023-08-07T10:29:52;99708.72;;;16.75;96.32
77590;BME280;66746;51.328;12.332;2023-08-07T10:32:21;99698.88;;;16.48;96.81
77590;BME280;66746;51.328;12.332;2023-08-07T10:34:51;99708.97;;;16.35;96.96
77590;BME280;66746;51.328;12.332;2023-08-07T10:37:32;99702.81;;;16.31;96.51
77590;BME280;66746;51.328;12.332;2023-08-07T10:40:04;99697.00;;;16.23;96.24
77590;BME280;66746;51.328;12.332;2023-08-07T10:42:33;99699.09;;;16.32;96.77
77590;BME280;66746;51.328;12.332;2023-08-07T10:45:16;99692.94;;;16.41;94.31
77590;BME280;66746;51.328;12.332;2023-08-07T10:47:43;99694.84;;;16.53;93.94
77590;BME280;66746;51.328;12.332;2023-08-07T10:50:10;99698.22;;;16.69;89.54
77590;BME280;66746;51.328;12.332;2023-08-07T10:52:38;99688.50;;;17.25;89.12
77590;BME280;66746;51.328;12.332;2023-08-07T10:55:13;99690.97;;;17.41;86.14
77590;BME280;66746;51.328;12.332;2023-08-07T10:57:39;99701.84;;;17.42;84.16
77590;BME280;66746;51.328;12.332;2023-08-07T11:00:07;99688.13;;;17.19;87.65
77590;BME280;66746;51.328;12.332;2023-08-07T11:02:36;99687.00;;;17.45;87.85
77590;BME280;66746;51.328;12.332;2023-08-07T11:05:04;99687.91;;;17.69;86.22
77590;BME280;66746;51.328;12.332;2023-08-07T11:07:31;99680.19;;;17.50;84.78
77590;BME280;66746;51.328;12.332;2023-08-07T11:09:58;99688.50;;;17.61;83.58
77590;BME280;66746;51.328;12.332;2023-08-07T11:12:27;99683.47;;;17.90;83.03
77590;BME280;66746;51.328;12.332;2023-08-07T11:14:55;99683.56;;;18.12;84.16
77590;BME280;66746;51.328;12.332;2023-08-07T11:17:24;99679.31;;;18.19;81.49
77590;BME280;66746;51.328;12.332;2023-08-07T11:19:51;99674.91;;;18.06;81.50
77590;BME280;66746;51.328;12.332;2023-08-07T11:22:17;99681.06;;;18.20;81.99
77590;BME280;66746;51.328;12.332;2023-08-07T11:24:45;99674.78;;;18.07;79.41
77590;BME280;66746;51.328;12.332;2023-08-07T11:27:11;99675.78;;;17.95;81.14
77590;BME280;66746;51.328;12.332;2023-08-07T11:29:39;99701.38;;;17.72;82.38
77590;BME280;66746;51.328;12.332;2023-08-07T11:32:06;99679.00;;;17.89;81.90
77590;BME280;66746;51.328;12.332;2023-08-07T11:34:34;99685.25;;;17.91;81.21
77590;BME280;66746;51.328;12.332;2023-08-07T11:37:01;99684.78;;;17.97;79.27
77590;BME280;66746;51.328;12.332;2023-08-07T11:39:27;99698.56;;;18.30;80.31
77590;BME280;66746;51.328;12.332;2023-08-07T11:41:54;99709.03;;;18.25;78.91
77590;BME280;66746;51.328;12.332;2023-08-07T11:44:20;99707.97;;;18.04;78.67
77590;BME280;66746;51.328;12.332;2023-08-07T11:46:50;99698.31;;;18.22;79.82
77590;BME280;66746;51.328;12.332;2023-08-07T11:49:17;99684.31;;;18.25;79.52
77590;BME280;66746;51.328;12.332;2023-08-07T11:51:43;99691.22;;;18.42;75.62
77590;BME280;66746;51.328;12.332;2023-08-07T11:54:14;99684.66;;;18.56;80.36
77590;BME280;66746;51.328;12.332;2023-08-07T11:56:41;99689.31;;;18.31;75.99
77590;BME280;66746;51.328;12.332;2023-08-07T11:59:08;99690.69;;;18.15;78.11
77590;BME280;66746;51.328;12.332;2023-08-07T12:01:37;99680.59;;;18.26;78.70
77590;BME280;66746;51.328;12.332;2023-08-07T12:04:09;99681.06;;;18.20;77.34
77590;BME280;66746;51.328;12.332;2023-08-07T12:06:37;99670.84;;;18.33;79.27
77590;BME280;66746;51.328;12.332;2023-08-07T12:09:03;99686.44;;;18.33;80.57
77590;BME280;66746;51.328;12.332;2023-08-07T12:11:31;99678.28;;;18.09;78.58
77590;BME280;66746;51.328;12.332;2023-08-07T12:13:59;99689.59;;;18.39;79.49
77590;BME280;66746;51.328;12.332;2023-08-07T12:16:32;99689.88;;;18.47;81.19
77590;BME280;66746;51.328;12.332;2023-08-07T12:18:59;99687.59;;;18.41;79.18
77590;BME280;66746;51.328;12.332;2023-08-07T12:21:27;99695.84;;;18.52;79.84
77590;BME280;66746;51.328;12.332;2023-08-07T12:23:55;99692.63;;;18.47;80.03
77590;BME280;66746;51.328;12.332;2023-08-07T12:26:25;99690.41;;;18.64;79.48
77590;BME280;66746;51.328;12.332;2023-08-07T12:28:52;99686.41;;;18.68;77.71
77590;BME280;66746;51.328;12.332;2023-08-07T12:31:18;99673.66;;;18.67;78.11
77590;BME280;66746;51.328;12.332;2023-08-07T12:33:45;99700.88;;;18.47;78.80
77590;BME280;66746;51.328;12.332;2023-08-07T12:36:11;99698.50;;;18.08;77.15
77590;BME280;66746;51.328;12.332;2023-08-07T12:38:42;99706.38;;;18.70;74.98
77590;BME280;66746;51.328;12.332;2023-08-07T12:41:09;99714.84;;;19.11;73.63
77590;BME280;66746;51.328;12.332;2023-08-07T12:43:55;99722.38;;;18.76;71.51
77590;BME280;66746;51.328;12.332;2023-08-07T12:46:22;99732.44;;;18.53;73.29
77590;BME280;66746;51.328;12.332;2023-08-07T12:48:51;99740.00;;;18.38;77.06
77590;BME280;66746;51.328;12.332;2023-08-07T12:51:18;99741.16;;;18.47;73.79
77590;BME280;66746;51.328;12.332;2023-08-07T12:53:46;99745.50;;;18.38;76.31
77590;BME280;66746;51.328;12.332;2023-08-07T12:56:12;99766.16;;;18.55;72.44
77590;BME280;66746;51.328;12.332;2023-08-07T12:58:39;99761.50;;;18.44;73.20
77590;BME280;66746;51.328;12.332;2023-08-07T13:01:08;99754.47;;;18.40;72.97
77590;BME280;66746;51.328;12.332;2023-08-07T13:03:35;99748.78;;;18.43;73.69
77590;BME280;66746;51.328;12.332;2023-08-07T13:06:02;99756.31;;;18.29;75.00
77590;BME280;66746;51.328;12.332;2023-08-07T13:08:28;99764.78;;;18.15;76.43
77590;BME280;66746;51.328;12.332;2023-08-07T13:10:56;99756.16;;;17.85;76.14